Terminal Aerodrome Forecast
Issued by NWS

Home | Current Version | Previous Version | Graphics & Text | Print | Product List | Glossary On
Versions: 1 2 3 4 5 6 7 8 9 10 11 12 13 14 15 16 17 18 19 20 21 22 23 24 25 26 27 28 29 30 31 32 33 34 35 36 37 38 39 40 41 42 43 44 45 46 47 48 49 50
000
FTUS43 KLOT 281123
TAFGYY
TAF
KGYY 281123Z 2812/2912 VRB04KT P6SM FEW050
     FM281500 19007KT P6SM FEW050 BKN250
     FM282000 16011KT P6SM VCSH BKN045 BKN100 PROB30 2822/2902 4SM
      SHRA BKN020
     FM290300 13008KT P6SM VCSH SCT008 OVC012 PROB30 2907/2911 4SM
      -SHRA OVC007=

USA.gov is the U.S. government's official web portal to all federal, state and local government web resources and services.